Time;durP1;ratioP1;P1;durP2;ratioP2;P2;SDS_P1;SDS_P2;PMS_P1;PMS_P2;Temp;Humidity;BMP_temperature;BMP_pressure;BME280_temperature;BME280_humidity;BME280_pressure;Samples;Min_cycle;Max_cycle;Signal;HPM_P1;HPM_P2
2023/03/23 00:00:14;;;;;;;;;;;;;;;-145.06;100.00;60892.56;4897271;28;19920;-91
2023/03/23 00:02:53;;;;;;;;;;;;;;;-145.06;100.00;60892.56;4898249;28;19920;-91
2023/03/23 00:05:32;;;;;;;;;;;;;;;-145.06;100.00;60892.56;4906250;28;19920;-91
2023/03/23 00:08:12;;;;;;;;;;;;;;;-145.06;100.00;60892.56;4903783;28;19916;-89
2023/03/23 00:10:56;;;;;;;;;;;;;;;-145.06;100.00;60892.56;4899599;28;19917;-90
2023/03/23 00:13:35;;;;;;;;;;;;;;;-145.06;100.00;60892.56;4894779;28;19920;-90
2023/03/23 00:16:17;;;;;;;;;;;;;;;-145.06;100.00;60892.56;4900849;28;19912;-90
2023/03/23 00:18:58;;;;;;;;;;;;;;;-145.06;100.00;60892.56;4898104;28;20267;-89
2023/03/23 00:21:38;;;;;;;;;;;;;;;-145.06;100.00;60892.56;4891127;28;19999;-90
2023/03/23 00:24:17;;;;;;;;;;;;;;;-145.06;100.00;60892.56;4908391;28;20239;-90
2023/03/23 00:26:58;;;;;;;;;;;;;;;-145.06;100.00;60892.56;4895878;28;19916;-89
2023/03/23 00:29:37;;;;;;;;;;;;;;;-145.06;100.00;60892.56;4894809;28;19916;-90
2023/03/23 00:32:17;;;;;;;;;;;;;;;-145.06;100.00;60892.56;4911895;28;19921;-91
2023/03/23 00:35:00;;;;;;;;;;;;;;;-145.06;100.00;60892.56;4905509;28;19959;-91
2023/03/23 00:37:40;;;;;;;;;;;;;;;-145.06;100.00;60892.56;4910354;28;19967;-91
2023/03/23 00:40:19;;;;;;;;;;;;;;;-145.06;100.00;60892.56;4918224;28;19917;-89
2023/03/23 00:42:57;;;;;;;;;;;;;;;-145.06;100.00;60892.56;4898075;28;19912;-88
2023/03/23 00:45:36;;;;;;;;;;;;;;;-145.06;100.00;60892.56;4906443;28;19920;-91
2023/03/23 00:48:16;;;;;;;;;;;;;;;-145.06;100.00;60892.56;4889193;28;19913;-90
2023/03/23 00:50:55;;;;;;;;;;;;;;;-145.06;100.00;60892.56;4901682;28;19920;-90
2023/03/23 00:53:35;;;;;;;;;;;;;;;-145.06;100.00;60892.56;4891869;28;19920;-91
2023/03/23 00:56:14;;;;;;;;;;;;;;;-145.06;100.00;60892.56;4905723;28;20370;-89
2023/03/23 00:58:53;;;;;;;;;;;;;;;-145.06;100.00;60892.56;4906336;28;20397;-90
2023/03/23 01:01:32;;;;;;;;;;;;;;;-145.06;100.00;60892.56;4903785;28;19916;-91
2023/03/23 01:04:12;;;;;;;;;;;;;;;-145.06;100.00;60892.56;4897310;28;20329;-90
2023/03/23 01:06:51;;;;;;;;;;;;;;;-145.06;100.00;60892.56;4897228;28;19912;-89
2023/03/23 01:09:30;;;;;;;;;;;;;;;-145.06;100.00;60892.56;4902531;28;19924;-91
2023/03/23 01:12:09;;;;;;;;;;;;;;;-145.06;100.00;60892.56;4906294;28;19931;-90
2023/03/23 01:14:48;;;;;;;;;;;;;;;-145.06;100.00;60892.56;4901325;28;19920;-90
2023/03/23 01:17:27;;;;;;;;;;;;;;;-145.06;100.00;60892.56;4905647;28;19920;-89
2023/03/23 01:20:07;;;;;;;;;;;;;;;-145.06;100.00;60892.56;4902667;28;19916;-90
2023/03/23 01:22:46;;;;;;;;;;;;;;;-145.06;100.00;60892.56;4900256;28;19912;-90
2023/03/23 01:25:25;;;;;;;;;;;;;;;-145.06;100.00;60892.56;4904349;28;19963;-91
2023/03/23 01:28:04;;;;;;;;;;;;;;;-145.06;100.00;60892.56;4902453;28;20493;-91
2023/03/23 01:30:43;;;;;;;;;;;;;;;-145.06;100.00;60892.56;4902933;28;20259;-91
2023/03/23 01:33:22;;;;;;;;;;;;;;;-145.06;100.00;60892.56;4903766;28;19915;-91
2023/03/23 01:36:08;;;;;;;;;;;;;;;-145.06;100.00;60892.56;4902169;28;19912;-91
2023/03/23 01:38:47;;;;;;;;;;;;;;;-145.06;100.00;60892.56;4902112;28;19920;-91
2023/03/23 01:41:26;;;;;;;;;;;;;;;-145.06;100.00;60892.56;4903494;28;19912;-92
2023/03/23 01:44:07;;;;;;;;;;;;;;;-145.06;100.00;60892.56;4893837;28;19955;-93
2023/03/23 01:46:46;;;;;;;;;;;;;;;-145.06;100.00;60892.56;4903459;28;19912;-90
2023/03/23 01:49:27;;;;;;;;;;;;;;;-145.06;100.00;60892.56;4903901;28;19916;-90
2023/03/23 01:52:16;;;;;;;;;;;;;;;-145.06;100.00;60892.56;4894635;28;19912;-91
2023/03/23 01:54:56;;;;;;;;;;;;;;;-145.06;100.00;60892.56;4912434;28;19916;-90
2023/03/23 01:57:35;;;;;;;;;;;;;;;-145.06;100.00;60892.56;4904709;28;19964;-91
2023/03/23 02:00:15;;;;;;;;;;;;;;;-145.06;100.00;60892.56;4894466;28;20259;-90
2023/03/23 02:02:55;;;;;;;;;;;;;;;-145.06;100.00;60892.56;4925665;28;20535;-90
2023/03/23 02:05:38;;;;;;;;;;;;;;;-145.06;100.00;60892.56;4891888;28;19916;-91
2023/03/23 02:08:18;;;;;;;;;;;;;;;-145.06;100.00;60892.56;4903094;28;20003;-92
2023/03/23 02:10:57;;;;;;;;;;;;;;;-145.06;100.00;60892.56;4905250;28;20255;-91
2023/03/23 02:13:36;;;;;;;;;;;;;;;-145.06;100.00;60892.56;4907252;28;19916;-91
2023/03/23 02:16:28;;;;;;;;;;;;;;;-145.06;100.00;60892.56;4898663;28;19917;-90
2023/03/23 02:19:13;;;;;;;;;;;;;;;-145.06;100.00;60892.56;4906695;28;19917;-90
2023/03/23 02:21:58;;;;;;;;;;;;;;;-145.06;100.00;60892.56;4902062;28;19912;-91
2023/03/23 02:24:37;;;;;;;;;;;;;;;-145.06;100.00;60892.56;4894556;28;19917;-91
2023/03/23 02:27:21;;;;;;;;;;;;;;;-145.06;100.00;60892.56;4896774;28;19916;-89
2023/03/23 02:30:18;;;;;;;;;;;;;;;-145.06;100.00;60892.56;4906547;28;19920;-92
2023/03/23 02:33:17;;;;;;;;;;;;;;;-145.06;100.00;60892.56;4905736;28;19920;-90
2023/03/23 02:36:11;;;;;;;;;;;;;;;-145.06;100.00;60892.56;4898062;28;19920;-91
2023/03/23 02:39:00;;;;;;;;;;;;;;;-145.06;100.00;60892.56;4899440;28;19920;-91
2023/03/23 02:41:41;;;;;;;;;;;;;;;-145.06;100.00;60892.56;4888419;28;19916;-90
2023/03/23 02:44:21;;;;;;;;;;;;;;;-145.06;100.00;60892.56;4901735;28;19912;-90
2023/03/23 02:47:02;;;;;;;;;;;;;;;-145.06;100.00;60892.56;4901687;28;19920;-90
2023/03/23 02:49:42;;;;;;;;;;;;;;;-145.06;100.00;60892.56;4903654;28;19916;-91
2023/03/23 02:52:22;;;;;;;;;;;;;;;-145.06;100.00;60892.56;4901489;28;19917;-90
2023/03/23 02:55:02;;;;;;;;;;;;;;;-145.06;100.00;60892.56;4926288;28;20365;-91
2023/03/23 02:57:41;;;;;;;;;;;;;;;-145.06;100.00;60892.56;4890843;28;19925;-91
2023/03/23 03:00:20;;;;;;;;;;;;;;;-145.06;100.00;60892.56;4887949;28;20475;-91
2023/03/23 03:03:02;;;;;;;;;;;;;;;-145.06;100.00;60892.56;4898202;28;20445;-91
2023/03/23 03:05:44;;;;;;;;;;;;;;;-145.06;100.00;60892.56;4908872;28;20265;-90
2023/03/23 03:08:34;;;;;;;;;;;;;;;-145.06;100.00;60892.56;4909193;28;19916;-92
2023/03/23 03:11:15;;;;;;;;;;;;;;;-145.06;100.00;60892.56;4910176;28;19912;-92
2023/03/23 03:13:59;;;;;;;;;;;;;;;-145.06;100.00;60892.56;4895008;28;19920;-90
2023/03/23 03:16:41;;;;;;;;;;;;;;;-145.06;100.00;60892.56;4905356;28;19916;-90
2023/03/23 03:19:32;;;;;;;;;;;;;;;-145.06;100.00;60892.56;4908942;28;20385;-90
2023/03/23 03:22:11;;;;;;;;;;;;;;;-145.06;100.00;60892.56;4893842;28;19916;-90
2023/03/23 03:24:51;;;;;;;;;;;;;;;-145.06;100.00;60892.56;4891184;28;19917;-91
2023/03/23 03:27:31;;;;;;;;;;;;;;;-145.06;100.00;60892.56;4920264;28;19916;-90
2023/03/23 03:30:12;;;;;;;;;;;;;;;-145.06;100.00;60892.56;4896116;28;19916;-91
2023/03/23 03:32:53;;;;;;;;;;;;;;;-145.06;100.00;60892.56;4909397;28;20381;-91
2023/03/23 03:35:36;;;;;;;;;;;;;;;-145.06;100.00;60892.56;4897443;28;19916;-89
2023/03/23 03:38:15;;;;;;;;;;;;;;;-145.06;100.00;60892.56;4905736;28;19951;-91
2023/03/23 03:40:55;;;;;;;;;;;;;;;-145.06;100.00;60892.56;4905358;28;19912;-91
2023/03/23 03:43:35;;;;;;;;;;;;;;;-145.06;100.00;60892.56;4903910;28;19912;-90
2023/03/23 03:46:14;;;;;;;;;;;;;;;-145.06;100.00;60892.56;4893293;28;19912;-92
2023/03/23 03:48:53;;;;;;;;;;;;;;;-145.06;100.00;60892.56;4909159;28;19912;-92
2023/03/23 03:51:32;;;;;;;;;;;;;;;-145.06;100.00;60892.56;4901483;28;19920;-90
2023/03/23 03:54:11;;;;;;;;;;;;;;;-145.06;100.00;60892.56;4905485;28;19971;-91
2023/03/23 03:56:51;;;;;;;;;;;;;;;-145.06;100.00;60892.56;4907564;28;19916;-90
2023/03/23 03:59:30;;;;;;;;;;;;;;;-145.06;100.00;60892.56;4914601;28;19952;-90
2023/03/23 04:02:13;;;;;;;;;;;;;;;-145.06;100.00;60892.56;4897871;28;19916;-91
2023/03/23 04:04:52;;;;;;;;;;;;;;;-145.06;100.00;60892.56;4891316;28;19920;-90
2023/03/23 04:07:31;;;;;;;;;;;;;;;-145.06;100.00;60892.56;4928555;28;19916;-92
2023/03/23 04:10:12;;;;;;;;;;;;;;;-145.06;100.00;60892.56;4904614;28;19916;-92
2023/03/23 04:12:51;;;;;;;;;;;;;;;-145.06;100.00;60892.56;4893950;28;19920;-92
2023/03/23 04:15:30;;;;;;;;;;;;;;;-145.06;100.00;60892.56;4897764;28;19912;-92
2023/03/23 04:18:09;;;;;;;;;;;;;;;-145.06;100.00;60892.56;4910662;28;19916;-91
2023/03/23 04:20:49;;;;;;;;;;;;;;;-145.06;100.00;60892.56;4925506;28;19947;-91
2023/03/23 04:23:31;;;;;;;;;;;;;;;-145.06;100.00;60892.56;4901060;28;19972;-93
2023/03/23 04:26:12;;;;;;;;;;;;;;;-145.06;100.00;60892.56;4900212;28;19913;-92
2023/03/23 04:28:52;;;;;;;;;;;;;;;-145.06;100.00;60892.56;4904191;28;20394;-93
2023/03/23 04:31:31;;;;;;;;;;;;;;;-145.06;100.00;60892.56;4890667;28;19952;-91
2023/03/23 04:34:13;;;;;;;;;;;;;;;-145.06;100.00;60892.56;4902892;28;19917;-92
2023/03/23 04:36:52;;;;;;;;;;;;;;;-145.06;100.00;60892.56;4892334;28;19916;-94
2023/03/23 04:39:35;;;;;;;;;;;;;;;-145.06;100.00;60892.56;4904644;28;19912;-92
2023/03/23 04:42:16;;;;;;;;;;;;;;;-145.06;100.00;60892.56;4896227;28;19917;-93
2023/03/23 04:44:56;;;;;;;;;;;;;;;-145.06;100.00;60892.56;4899573;28;19916;-91
2023/03/23 04:47:40;;;;;;;;;;;;;;;-145.06;100.00;60892.56;4902652;28;19916;-90
2023/03/23 04:50:20;;;;;;;;;;;;;;;-145.06;100.00;60892.56;4904370;28;19916;-91
2023/03/23 04:53:03;;;;;;;;;;;;;;;-145.06;100.00;60892.56;4899283;28;20263;-91
2023/03/23 04:55:42;;;;;;;;;;;;;;;-145.06;100.00;60892.56;4906190;28;19983;-91
2023/03/23 04:58:23;;;;;;;;;;;;;;;-145.06;100.00;60892.56;4889957;28;20354;-91
2023/03/23 05:01:02;;;;;;;;;;;;;;;-145.06;100.00;60892.56;4896396;28;20259;-92
2023/03/23 05:03:41;;;;;;;;;;;;;;;-145.06;100.00;60892.56;4901360;28;20259;-92
2023/03/23 05:06:21;;;;;;;;;;;;;;;-145.06;100.00;60892.56;4893898;28;19916;-89
2023/03/23 05:09:00;;;;;;;;;;;;;;;-145.06;100.00;60892.56;4893651;28;20310;-91
2023/03/23 05:11:39;;;;;;;;;;;;;;;-145.06;100.00;60892.56;4901170;28;19924;-91
2023/03/23 05:14:18;;;;;;;;;;;;;;;-145.06;100.00;60892.56;4896059;28;19916;-93
2023/03/23 05:16:57;;;;;;;;;;;;;;;-145.06;100.00;60892.56;4896056;28;19916;-92
2023/03/23 05:19:37;;;;;;;;;;;;;;;-145.06;100.00;60892.56;4900327;28;20010;-91
2023/03/23 05:22:17;;;;;;;;;;;;;;;-145.06;100.00;60892.56;4901726;28;19951;-91
2023/03/23 05:24:56;;;;;;;;;;;;;;;-145.06;100.00;60892.56;4920697;28;19955;-91
2023/03/23 05:27:35;;;;;;;;;;;;;;;-145.06;100.00;60892.56;4894893;28;19924;-92
2023/03/23 05:30:16;;;;;;;;;;;;;;;-145.06;100.00;60892.56;4889819;28;19955;-91
2023/03/23 05:32:56;;;;;;;;;;;;;;;-145.06;100.00;60892.56;4893675;28;19917;-90
2023/03/23 05:35:35;;;;;;;;;;;;;;;-145.06;100.00;60892.56;4892751;28;19921;-91
2023/03/23 05:38:14;;;;;;;;;;;;;;;-145.06;100.00;60892.56;4899813;28;19920;-90
2023/03/23 05:40:54;;;;;;;;;;;;;;;-145.06;100.00;60892.56;4894767;28;19916;-90
2023/03/23 05:43:33;;;;;;;;;;;;;;;-145.06;100.00;60892.56;4902269;28;19916;-92
2023/03/23 05:46:12;;;;;;;;;;;;;;;-145.06;100.00;60892.56;4915609;28;19920;-91
2023/03/23 05:48:51;;;;;;;;;;;;;;;-145.06;100.00;60892.56;4903149;28;19912;-90
2023/03/23 05:51:31;;;;;;;;;;;;;;;-145.06;100.00;60892.56;4900356;28;20247;-90
2023/03/23 05:54:10;;;;;;;;;;;;;;;-145.06;100.00;60892.56;4891157;28;19916;-90
2023/03/23 05:56:49;;;;;;;;;;;;;;;-145.06;100.00;60892.56;4898598;28;19916;-91
2023/03/23 05:59:28;;;;;;;;;;;;;;;-145.06;100.00;60892.56;4900985;28;19920;-91
2023/03/23 06:02:07;;;;;;;;;;;;;;;-145.06;100.00;60892.56;4900760;28;19916;-91
2023/03/23 06:04:48;;;;;;;;;;;;;;;-145.06;100.00;60892.56;4919306;28;20365;-92
2023/03/23 06:07:27;;;;;;;;;;;;;;;-145.06;100.00;60892.56;4895865;28;20274;-91
2023/03/23 06:10:07;;;;;;;;;;;;;;;-145.06;100.00;60892.56;4895802;28;20517;-91
2023/03/23 06:12:46;;;;;;;;;;;;;;;-145.06;100.00;60892.56;4901946;28;19917;-91
2023/03/23 06:15:28;;;;;;;;;;;;;;;-145.06;100.00;60892.56;4901262;28;19920;-91
2023/03/23 06:18:07;;;;;;;;;;;;;;;-145.06;100.00;60892.56;4899995;28;19925;-91
2023/03/23 06:20:46;;;;;;;;;;;;;;;-145.06;100.00;60892.56;4899973;28;20322;-91
2023/03/23 06:23:26;;;;;;;;;;;;;;;-145.06;100.00;60892.56;4901897;28;19920;-91
2023/03/23 06:26:06;;;;;;;;;;;;;;;-145.06;100.00;60892.56;4900445;28;19924;-91
2023/03/23 06:28:45;;;;;;;;;;;;;;;-145.06;100.00;60892.56;4912376;28;19921;-90
2023/03/23 06:31:27;;;;;;;;;;;;;;;-145.06;100.00;60892.56;4900617;28;19920;-91
2023/03/23 06:34:06;;;;;;;;;;;;;;;-145.06;100.00;60892.56;4905952;28;19948;-92
2023/03/23 06:36:48;;;;;;;;;;;;;;;-145.06;100.00;60892.56;4901951;28;19916;-91
2023/03/23 06:39:32;;;;;;;;;;;;;;;-145.06;100.00;60892.56;4907878;28;20003;-91
2023/03/23 06:42:11;;;;;;;;;;;;;;;-145.06;100.00;60892.56;4906093;28;20128;-92
2023/03/23 06:44:56;;;;;;;;;;;;;;;-145.06;100.00;60892.56;4905642;28;20342;-91
2023/03/23 06:47:35;;;;;;;;;;;;;;;-145.06;100.00;60892.56;4905472;28;20545;-91
2023/03/23 06:50:20;;;;;;;;;;;;;;;-145.06;100.00;60892.56;4909337;28;20127;-92
2023/03/23 06:52:59;;;;;;;;;;;;;;;-145.06;100.00;60892.56;4910409;28;19912;-91
2023/03/23 06:55:39;;;;;;;;;;;;;;;-145.06;100.00;60892.56;4911251;28;19912;-91
2023/03/23 06:58:23;;;;;;;;;;;;;;;-145.06;100.00;60892.56;4909072;28;19920;-91
2023/03/23 07:01:12;;;;;;;;;;;;;;;-145.06;100.00;60892.56;4897778;28;19916;-91
2023/03/23 07:03:51;;;;;;;;;;;;;;;-145.06;100.00;60892.56;4900605;28;19920;-92
2023/03/23 07:06:31;;;;;;;;;;;;;;;-145.06;100.00;60892.56;4900625;28;19916;-92
2023/03/23 07:09:12;;;;;;;;;;;;;;;-145.06;100.00;60892.56;4906618;28;19916;-90
2023/03/23 07:12:05;;;;;;;;;;;;;;;-145.06;100.00;60892.56;4898161;28;19916;-93
2023/03/23 07:14:49;;;;;;;;;;;;;;;-145.06;100.00;60892.56;4905078;28;19967;-92
2023/03/23 07:17:33;;;;;;;;;;;;;;;-145.06;100.00;60892.56;4900802;28;19928;-91
2023/03/23 07:20:12;;;;;;;;;;;;;;;-145.06;100.00;60892.56;4896057;28;19920;-91
2023/03/23 07:23:02;;;;;;;;;;;;;;;-145.06;100.00;60892.56;4910884;28;19916;-90
2023/03/23 07:25:46;;;;;;;;;;;;;;;-145.06;100.00;60892.56;4908409;28;19916;-91
2023/03/23 07:28:32;;;;;;;;;;;;;;;-145.06;100.00;60892.56;4904478;28;20675;-92
2023/03/23 07:31:17;;;;;;;;;;;;;;;-145.06;100.00;60892.56;4915389;28;19916;-92
2023/03/23 07:34:01;;;;;;;;;;;;;;;-145.06;100.00;60892.56;4907854;28;20331;-92
2023/03/23 07:36:43;;;;;;;;;;;;;;;-145.06;100.00;60892.56;4909682;28;19963;-92
2023/03/23 07:39:25;;;;;;;;;;;;;;;-145.06;100.00;60892.56;4907237;28;19916;-91
2023/03/23 07:42:07;;;;;;;;;;;;;;;-145.06;100.00;60892.56;4893609;28;20011;-91
2023/03/23 07:44:46;;;;;;;;;;;;;;;-145.06;100.00;60892.56;4910799;28;19912;-91
2023/03/23 07:47:26;;;;;;;;;;;;;;;-145.06;100.00;60892.56;4909403;28;19916;-92
2023/03/23 07:50:06;;;;;;;;;;;;;;;-145.06;100.00;60892.56;4909931;28;19912;-90
2023/03/23 07:52:45;;;;;;;;;;;;;;;-145.06;100.00;60892.56;4891883;28;19916;-91
2023/03/23 07:55:24;;;;;;;;;;;;;;;-145.06;100.00;60892.56;4891560;28;19917;-92
2023/03/23 07:58:16;;;;;;;;;;;;;;;-145.06;100.00;60892.56;4904752;28;20007;-92
2023/03/23 08:00:58;;;;;;;;;;;;;;;-145.06;100.00;60892.56;4890839;28;19976;-92
2023/03/23 08:03:37;;;;;;;;;;;;;;;-145.06;100.00;60892.56;4890838;28;19913;-91
2023/03/23 08:06:24;;;;;;;;;;;;;;;-145.06;100.00;60892.56;4890631;28;19912;-92
2023/03/23 08:09:08;;;;;;;;;;;;;;;-145.06;100.00;60892.56;4924891;28;19955;-92
2023/03/23 08:11:48;;;;;;;;;;;;;;;-145.06;100.00;60892.56;4894072;28;19956;-91
2023/03/23 08:14:28;;;;;;;;;;;;;;;-145.06;100.00;60892.56;4904929;28;19959;-90
2023/03/23 08:17:10;;;;;;;;;;;;;;;-145.06;100.00;60892.56;4890690;28;19913;-91
2023/03/23 08:19:52;;;;;;;;;;;;;;;-145.06;100.00;60892.56;4915983;28;20264;-91
2023/03/23 08:22:31;;;;;;;;;;;;;;;-145.06;100.00;60892.56;4911089;28;19952;-92
2023/03/23 08:25:14;;;;;;;;;;;;;;;-145.06;100.00;60892.56;4905427;28;19916;-92
2023/03/23 08:27:53;;;;;;;;;;;;;;;-145.06;100.00;60892.56;4914342;28;19964;-92
2023/03/23 08:30:33;;;;;;;;;;;;;;;-145.06;100.00;60892.56;4909950;28;19912;-92
2023/03/23 08:33:14;;;;;;;;;;;;;;;-145.06;100.00;60892.56;4900852;28;19912;-90
2023/03/23 08:36:02;;;;;;;;;;;;;;;-145.06;100.00;60892.56;4907192;28;19912;-91
2023/03/23 08:38:45;;;;;;;;;;;;;;;-145.06;100.00;60892.56;4894247;28;19925;-91
2023/03/23 08:41:27;;;;;;;;;;;;;;;-145.06;100.00;60892.56;4896175;28;19916;-91
2023/03/23 08:44:08;;;;;;;;;;;;;;;-145.06;100.00;60892.56;4909503;28;19912;-92
2023/03/23 08:46:54;;;;;;;;;;;;;;;-145.06;100.00;60892.56;4909848;28;19916;-92
2023/03/23 08:49:35;;;;;;;;;;;;;;;-145.06;100.00;60892.56;4909468;28;20325;-91
2023/03/23 08:52:15;;;;;;;;;;;;;;;-145.06;100.00;60892.56;4909296;28;20396;-90
2023/03/23 08:54:56;;;;;;;;;;;;;;;-145.06;100.00;60892.56;4909879;28;20007;-91
2023/03/23 08:57:36;;;;;;;;;;;;;;;-145.06;100.00;60892.56;4928364;28;19924;-93
2023/03/23 09:00:17;;;;;;;;;;;;;;;-145.06;100.00;60892.56;4920677;28;20042;-91
2023/03/23 09:02:57;;;;;;;;;;;;;;;-145.06;100.00;60892.56;4905574;28;19912;-93
2023/03/23 09:05:38;;;;;;;;;;;;;;;-145.06;100.00;60892.56;4909249;28;19916;-92
2023/03/23 09:08:18;;;;;;;;;;;;;;;-145.06;100.00;60892.56;4908515;28;19941;-92
2023/03/23 09:11:02;;;;;;;;;;;;;;;-145.06;100.00;60892.56;4908770;28;20357;-91
2023/03/23 09:13:41;;;;;;;;;;;;;;;-145.06;100.00;60892.56;4908470;28;19912;-90
2023/03/23 09:16:23;;;;;;;;;;;;;;;-145.06;100.00;60892.56;4909289;28;19912;-92
2023/03/23 09:19:02;;;;;;;;;;;;;;;-145.06;100.00;60892.56;4908360;28;19916;-93
2023/03/23 09:21:45;;;;;;;;;;;;;;;-145.06;100.00;60892.56;4908010;28;20374;-90
2023/03/23 09:24:25;;;;;;;;;;;;;;;-145.06;100.00;60892.56;4897323;28;19916;-93
2023/03/23 09:27:04;;;;;;;;;;;;;;;-145.06;100.00;60892.56;4908314;28;19916;-91
2023/03/23 09:29:45;;;;;;;;;;;;;;;-145.06;100.00;60892.56;4902766;28;19975;-92
2023/03/23 09:32:27;;;;;;;;;;;;;;;-145.06;100.00;60892.56;4908245;28;19915;-91
2023/03/23 09:35:12;;;;;;;;;;;;;;;-145.06;100.00;60892.56;4900603;28;19912;-91
2023/03/23 09:37:52;;;;;;;;;;;;;;;-145.06;100.00;60892.56;4908338;28;20409;-91
2023/03/23 09:40:54;;;;;;;;;;;;;;;-145.06;100.00;60892.56;4930943;28;19912;-92
2023/03/23 09:43:50;;;;;;;;;;;;;;;-145.06;100.00;60892.56;4888671;28;19912;-91
2023/03/23 09:46:42;;;;;;;;;;;;;;;-145.06;100.00;60892.56;4909766;28;19912;-90
2023/03/23 09:49:42;;;;;;;;;;;;;;;-145.06;100.00;60892.56;4910170;28;19912;-91
2023/03/23 09:52:26;;;;;;;;;;;;;;;-145.06;100.00;60892.56;4886690;28;19912;-91
2023/03/23 09:55:09;;;;;;;;;;;;;;;-145.06;100.00;60892.56;4903861;28;19912;-92
2023/03/23 09:58:08;;;;;;;;;;;;;;;-145.06;100.00;60892.56;4909443;28;19920;-93
2023/03/23 10:01:02;;;;;;;;;;;;;;;-145.06;100.00;60892.56;4909696;28;19916;-91
2023/03/23 10:03:48;;;;;;;;;;;;;;;-145.06;100.00;60892.56;4904285;28;19916;-91
2023/03/23 10:06:37;;;;;;;;;;;;;;;-145.06;100.00;60892.56;4920909;28;19944;-91
2023/03/23 10:09:19;;;;;;;;;;;;;;;-145.06;100.00;60892.56;4900904;28;19916;-91
2023/03/23 10:12:04;;;;;;;;;;;;;;;-145.06;100.00;60892.56;4909500;28;20275;-92
2023/03/23 10:15:05;;;;;;;;;;;;;;;-145.06;100.00;60892.56;4911603;28;19912;-93
2023/03/23 10:18:14;;;;;;;;;;;;;;;-145.06;100.00;60892.56;4912910;28;20250;-91
2023/03/23 10:20:57;;;;;;;;;;;;;;;-145.06;100.00;60892.56;4910667;28;19912;-90
2023/03/23 10:23:36;;;;;;;;;;;;;;;-145.06;100.00;60892.56;4912391;28;19912;-90
2023/03/23 10:26:24;;;;;;;;;;;;;;;-145.06;100.00;60892.56;4896017;28;19917;-88
2023/03/23 10:29:24;;;;;;;;;;;;;;;-145.06;100.00;60892.56;4911566;28;19948;-91
2023/03/23 10:32:15;;;;;;;;;;;;;;;-145.06;100.00;60892.56;4911290;28;19916;-90
2023/03/23 10:35:00;;;;;;;;;;;;;;;-145.06;100.00;60892.56;4896240;28;19912;-91
2023/03/23 10:37:43;;;;;;;;;;;;;;;-145.06;100.00;60892.56;4905214;28;19920;-89
2023/03/23 10:40:25;;;;;;;;;;;;;;;-145.06;100.00;60892.56;4905247;28;20509;-89
2023/03/23 10:43:04;;;;;;;;;;;;;;;-145.06;100.00;60892.56;4890159;28;19916;-90
2023/03/23 10:45:44;;;;;;;;;;;;;;;-145.06;100.00;60892.56;4922801;28;19912;-89
2023/03/23 10:48:32;;;;;;;;;;;;;;;-145.06;100.00;60892.56;4910262;28;19916;-91
2023/03/23 10:51:12;;;;;;;;;;;;;;;-145.06;100.00;60892.56;4913943;28;19988;-88
2023/03/23 10:53:56;;;;;;;;;;;;;;;-145.06;100.00;60892.56;4906228;28;19916;-89
2023/03/23 10:56:37;;;;;;;;;;;;;;;-145.06;100.00;60892.56;4914176;28;20031;-90
2023/03/23 10:59:20;;;;;;;;;;;;;;;-145.06;100.00;60892.56;4901924;28;20386;-91
2023/03/23 11:02:03;;;;;;;;;;;;;;;-145.06;100.00;60892.56;4902024;28;19951;-89
2023/03/23 11:04:46;;;;;;;;;;;;;;;-145.06;100.00;60892.56;4909051;28;19912;-89
2023/03/23 11:07:28;;;;;;;;;;;;;;;-145.06;100.00;60892.56;4895591;28;19920;-90
2023/03/23 11:10:16;;;;;;;;;;;;;;;-145.06;100.00;60892.56;4907636;28;19916;-90
2023/03/23 11:12:58;;;;;;;;;;;;;;;-145.06;100.00;60892.56;4903388;28;19921;-90
2023/03/23 11:15:39;;;;;;;;;;;;;;;-145.06;100.00;60892.56;4909157;28;19951;-89
2023/03/23 11:18:19;;;;;;;;;;;;;;;-145.06;100.00;60892.56;4906448;28;19963;-90
2023/03/23 11:20:58;;;;;;;;;;;;;;;-145.06;100.00;60892.56;4909807;28;19959;-89
2023/03/23 11:23:41;;;;;;;;;;;;;;;-145.06;100.00;60892.56;4929824;28;19912;-92
2023/03/23 11:26:26;;;;;;;;;;;;;;;-145.06;100.00;60892.56;4907631;28;19916;-90
2023/03/23 11:29:12;;;;;;;;;;;;;;;-145.06;100.00;60892.56;4895578;28;20259;-90
2023/03/23 11:32:00;;;;;;;;;;;;;;;-145.06;100.00;60892.56;4928968;28;20022;-90
2023/03/23 11:34:41;;;;;;;;;;;;;;;-145.06;100.00;60892.56;4899746;28;19916;-90
2023/03/23 11:37:28;;;;;;;;;;;;;;;-145.06;100.00;60892.56;4908828;28;19955;-90
2023/03/23 11:40:11;;;;;;;;;;;;;;;-145.06;100.00;60892.56;4909140;28;19916;-91
2023/03/23 11:42:53;;;;;;;;;;;;;;;-145.06;100.00;60892.56;4910024;28;19912;-90
2023/03/23 11:45:32;;;;;;;;;;;;;;;-145.06;100.00;60892.56;4900730;28;19955;-90
2023/03/23 11:48:30;;;;;;;;;;;;;;;-145.06;100.00;60892.56;4910996;28;19967;-91
2023/03/23 11:51:16;;;;;;;;;;;;;;;-145.06;100.00;60892.56;4904977;28;19912;-90
2023/03/23 11:54:13;;;;;;;;;;;;;;;-145.06;100.00;60892.56;4909919;28;19967;-90
2023/03/23 11:56:54;;;;;;;;;;;;;;;-145.06;100.00;60892.56;4910449;28;19979;-90
2023/03/23 11:59:35;;;;;;;;;;;;;;;-145.06;100.00;60892.56;4909817;28;19916;-90
2023/03/23 12:02:27;;;;;;;;;;;;;;;-145.06;100.00;60892.56;4897401;28;19920;-91
2023/03/23 12:05:18;;;;;;;;;;;;;;;-145.06;100.00;60892.56;4910671;28;20315;-90
2023/03/23 12:08:09;;;;;;;;;;;;;;;-145.06;100.00;60892.56;4908800;28;19912;-90
2023/03/23 12:10:58;;;;;;;;;;;;;;;-145.06;100.00;60892.56;4909683;28;19928;-91
2023/03/23 12:13:37;;;;;;;;;;;;;;;-145.06;100.00;60892.56;4911501;28;20373;-90
2023/03/23 12:16:16;;;;;;;;;;;;;;;-145.06;100.00;60892.56;4910183;28;19995;-91
2023/03/23 12:19:17;;;;;;;;;;;;;;;-145.06;100.00;60892.56;4894189;28;19925;-90
2023/03/23 12:22:03;;;;;;;;;;;;;;;-145.06;100.00;60892.56;4904693;28;19916;-91
2023/03/23 12:24:58;;;;;;;;;;;;;;;-145.06;100.00;60892.56;4897812;28;19979;-91
2023/03/23 12:28:01;;;;;;;;;;;;;;;-145.06;100.00;60892.56;4906250;28;19908;-91
2023/03/23 12:30:52;;;;;;;;;;;;;;;-145.06;100.00;60892.56;4911719;28;19916;-91
2023/03/23 12:33:46;;;;;;;;;;;;;;;-145.06;100.00;60892.56;4931556;28;19951;-91
2023/03/23 12:36:45;;;;;;;;;;;;;;;-145.06;100.00;60892.56;4909775;28;19916;-90
2023/03/23 12:39:43;;;;;;;;;;;;;;;-145.06;100.00;60892.56;4917983;28;19924;-92
2023/03/23 12:42:29;;;;;;;;;;;;;;;-145.06;100.00;60892.56;4890897;28;19917;-92
2023/03/23 12:45:19;;;;;;;;;;;;;;;-145.06;100.00;60892.56;4903801;28;19916;-93
2023/03/23 12:48:02;;;;;;;;;;;;;;;-145.06;100.00;60892.56;4909398;28;19912;-91
2023/03/23 12:50:45;;;;;;;;;;;;;;;-145.06;100.00;60892.56;4897200;28;19956;-94
2023/03/23 12:53:30;;;;;;;;;;;;;;;-145.06;100.00;60892.56;4909376;28;19920;-90
2023/03/23 12:56:39;;;;;;;;;;;;;;;-145.06;100.00;60892.56;4908787;28;19967;-91
2023/03/23 12:59:32;;;;;;;;;;;;;;;-145.06;100.00;60892.56;4893515;28;20384;-90
2023/03/23 13:02:24;;;;;;;;;;;;;;;-145.06;100.00;60892.56;4908298;28;19979;-91
2023/03/23 13:05:06;;;;;;;;;;;;;;;-145.06;100.00;60892.56;4908009;28;20251;-91
2023/03/23 13:07:57;;;;;;;;;;;;;;;-145.06;100.00;60892.56;4907123;28;19916;-92
2023/03/23 13:10:49;;;;;;;;;;;;;;;-145.06;100.00;60892.56;4908007;28;19920;-92
2023/03/23 13:13:40;;;;;;;;;;;;;;;-145.06;100.00;60892.56;4909577;28;20259;-91
2023/03/23 13:16:30;;;;;;;;;;;;;;;-145.06;100.00;60892.56;4894622;28;19920;-92
2023/03/23 13:19:28;;;;;;;;;;;;;;;-145.06;100.00;60892.56;4906174;28;19916;-91
2023/03/23 13:22:39;;;;;;;;;;;;;;;;;;;;;
2023/03/23 13:36:37;;;;;;;;;;;;;;;;;;;;;
2023/03/23 13:46:39;;;;;;;;;;;;;;;;;;;;;
2023/03/23 13:53:02;;;;;;;;;;;;;;;-145.06;100.00;60892.56;4718898;29;20367;-92
2023/03/23 13:55:47;;;;;;;;;;;;;;;-145.06;100.00;60892.56;4686919;29;19917;-93
2023/03/23 13:58:31;;;;;;;;;;;;;;;-145.06;100.00;60892.56;4786621;28;19925;-89
2023/03/23 14:01:41;;;;;;;;;;;;;;;-145.06;100.00;60892.56;4823770;28;20059;-90